Terminal Aerodrome Forecast
Issued by NWS

Current Version | Previous Version | Text Only | Print | Product List | Glossary On
Versions: 1 2 3 4 5 6 7 8 9 10 11 12 13 14 15 16 17 18 19 20 21 22 23
000
FTAK31 PAFA 212330
TAFATA
TAF
PATA 212330Z 2200/2224 00000KT P6SM OVC045
     FM220900 VRB03KT P6SM SCT025 BKN045 BKN100=

USA.gov is the U.S. government's official web portal to all federal, state and local government web resources and services.